sensor_id;sensor_type;location;lat;lon;timestamp;P1;durP1;ratioP1;P2;durP2;ratioP2
54033;SDS011;39952;40.122;18.294;2022-10-16T00:02:09;19.33;;;11.02;;
54033;SDS011;39952;40.122;18.294;2022-10-16T00:05:16;17.30;;;9.70;;
54033;SDS011;39952;40.122;18.294;2022-10-16T00:08:22;14.90;;;8.57;;
54033;SDS011;39952;40.122;18.294;2022-10-16T00:11:30;17.08;;;11.35;;
54033;SDS011;39952;40.122;18.294;2022-10-16T00:14:42;19.52;;;10.68;;
54033;SDS011;39952;40.122;18.294;2022-10-16T00:17:48;32.70;;;11.88;;
54033;SDS011;39952;40.122;18.294;2022-10-16T00:20:55;22.67;;;12.27;;
54033;SDS011;39952;40.122;18.294;2022-10-16T00:24:25;20.55;;;11.85;;
54033;SDS011;39952;40.122;18.294;2022-10-16T00:27:34;18.10;;;10.63;;
54033;SDS011;39952;40.122;18.294;2022-10-16T00:30:42;23.38;;;11.20;;
54033;SDS011;39952;40.122;18.294;2022-10-16T00:33:49;18.98;;;11.65;;
54033;SDS011;39952;40.122;18.294;2022-10-16T00:36:57;20.63;;;11.00;;
54033;SDS011;39952;40.122;18.294;2022-10-16T00:40:03;19.92;;;10.63;;
54033;SDS011;39952;40.122;18.294;2022-10-16T00:43:14;23.48;;;10.75;;
54033;SDS011;39952;40.122;18.294;2022-10-16T00:46:41;25.40;;;12.15;;
54033;SDS011;39952;40.122;18.294;2022-10-16T00:49:49;17.83;;;10.93;;
54033;SDS011;39952;40.122;18.294;2022-10-16T00:52:59;18.65;;;11.40;;
54033;SDS011;39952;40.122;18.294;2022-10-16T00:56:07;22.73;;;12.85;;
54033;SDS011;39952;40.122;18.294;2022-10-16T00:59:15;22.67;;;10.68;;
54033;SDS011;39952;40.122;18.294;2022-10-16T01:02:25;23.13;;;13.18;;
54033;SDS011;39952;40.122;18.294;2022-10-16T01:05:33;21.60;;;12.07;;
54033;SDS011;39952;40.122;18.294;2022-10-16T01:08:47;18.58;;;10.98;;
54033;SDS011;39952;40.122;18.294;2022-10-16T01:12:05;19.48;;;11.05;;
54033;SDS011;39952;40.122;18.294;2022-10-16T01:15:17;19.17;;;11.07;;
54033;SDS011;39952;40.122;18.294;2022-10-16T01:18:31;20.80;;;11.20;;
54033;SDS011;39952;40.122;18.294;2022-10-16T01:21:42;20.92;;;12.02;;
54033;SDS011;39952;40.122;18.294;2022-10-16T01:24:51;20.30;;;11.73;;
54033;SDS011;39952;40.122;18.294;2022-10-16T01:28:02;20.10;;;11.77;;
54033;SDS011;39952;40.122;18.294;2022-10-16T01:31:12;20.75;;;11.13;;
54033;SDS011;39952;40.122;18.294;2022-10-16T01:34:25;20.98;;;12.68;;
54033;SDS011;39952;40.122;18.294;2022-10-16T01:37:39;22.23;;;13.13;;
54033;SDS011;39952;40.122;18.294;2022-10-16T01:40:52;25.23;;;13.32;;
54033;SDS011;39952;40.122;18.294;2022-10-16T01:44:06;21.92;;;12.20;;
54033;SDS011;39952;40.122;18.294;2022-10-16T01:47:17;20.10;;;11.88;;
54033;SDS011;39952;40.122;18.294;2022-10-16T01:50:25;23.98;;;12.68;;
54033;SDS011;39952;40.122;18.294;2022-10-16T01:53:33;18.70;;;11.57;;
54033;SDS011;39952;40.122;18.294;2022-10-16T01:56:40;39.72;;;13.98;;
54033;SDS011;39952;40.122;18.294;2022-10-16T01:59:50;24.30;;;12.63;;
54033;SDS011;39952;40.122;18.294;2022-10-16T02:03:02;22.60;;;13.45;;
54033;SDS011;39952;40.122;18.294;2022-10-16T02:06:10;26.50;;;14.50;;
54033;SDS011;39952;40.122;18.294;2022-10-16T02:09:18;24.00;;;12.70;;
54033;SDS011;39952;40.122;18.294;2022-10-16T02:12:25;22.77;;;14.38;;
54033;SDS011;39952;40.122;18.294;2022-10-16T02:18:42;22.40;;;13.60;;
54033;SDS011;39952;40.122;18.294;2022-10-16T02:21:50;25.25;;;12.65;;
54033;SDS011;39952;40.122;18.294;2022-10-16T02:25:01;22.05;;;13.18;;
54033;SDS011;39952;40.122;18.294;2022-10-16T02:28:13;21.73;;;13.10;;
54033;SDS011;39952;40.122;18.294;2022-10-16T02:31:26;27.80;;;14.07;;
54033;SDS011;39952;40.122;18.294;2022-10-16T02:34:35;30.52;;;14.63;;
54033;SDS011;39952;40.122;18.294;2022-10-16T02:37:43;25.15;;;14.10;;
54033;SDS011;39952;40.122;18.294;2022-10-16T02:40:51;21.45;;;13.15;;
54033;SDS011;39952;40.122;18.294;2022-10-16T02:43:58;25.80;;;13.93;;
54033;SDS011;39952;40.122;18.294;2022-10-16T02:47:06;23.67;;;13.07;;
54033;SDS011;39952;40.122;18.294;2022-10-16T02:50:13;24.75;;;13.15;;
54033;SDS011;39952;40.122;18.294;2022-10-16T02:53:20;27.42;;;13.32;;
54033;SDS011;39952;40.122;18.294;2022-10-16T02:56:27;22.13;;;12.68;;
54033;SDS011;39952;40.122;18.294;2022-10-16T02:59:34;24.10;;;12.73;;
54033;SDS011;39952;40.122;18.294;2022-10-16T03:02:42;25.88;;;13.55;;
54033;SDS011;39952;40.122;18.294;2022-10-16T03:05:49;27.15;;;13.68;;
54033;SDS011;39952;40.122;18.294;2022-10-16T03:08:55;26.92;;;13.68;;
54033;SDS011;39952;40.122;18.294;2022-10-16T03:12:02;21.52;;;12.95;;
54033;SDS011;39952;40.122;18.294;2022-10-16T03:15:09;26.15;;;14.10;;
54033;SDS011;39952;40.122;18.294;2022-10-16T03:18:17;24.77;;;15.25;;
54033;SDS011;39952;40.122;18.294;2022-10-16T03:21:24;19.60;;;12.05;;
54033;SDS011;39952;40.122;18.294;2022-10-16T03:24:31;27.20;;;14.32;;
54033;SDS011;39952;40.122;18.294;2022-10-16T03:27:37;21.70;;;13.30;;
54033;SDS011;39952;40.122;18.294;2022-10-16T03:30:44;21.52;;;13.45;;
54033;SDS011;39952;40.122;18.294;2022-10-16T03:33:52;24.95;;;13.35;;
54033;SDS011;39952;40.122;18.294;2022-10-16T03:36:59;22.70;;;12.82;;
54033;SDS011;39952;40.122;18.294;2022-10-16T03:40:07;23.48;;;13.18;;
54033;SDS011;39952;40.122;18.294;2022-10-16T03:43:14;22.95;;;12.30;;
54033;SDS011;39952;40.122;18.294;2022-10-16T03:46:21;26.70;;;14.35;;
54033;SDS011;39952;40.122;18.294;2022-10-16T03:49:29;24.73;;;13.80;;
54033;SDS011;39952;40.122;18.294;2022-10-16T03:52:36;22.20;;;12.80;;
54033;SDS011;39952;40.122;18.294;2022-10-16T03:55:43;26.55;;;12.88;;
54033;SDS011;39952;40.122;18.294;2022-10-16T03:58:50;23.85;;;12.73;;
54033;SDS011;39952;40.122;18.294;2022-10-16T04:01:56;21.00;;;12.63;;
54033;SDS011;39952;40.122;18.294;2022-10-16T04:05:05;26.20;;;13.27;;
54033;SDS011;39952;40.122;18.294;2022-10-16T04:08:13;22.25;;;12.55;;
54033;SDS011;39952;40.122;18.294;2022-10-16T04:11:19;24.83;;;13.68;;
54033;SDS011;39952;40.122;18.294;2022-10-16T04:14:26;24.63;;;14.35;;
54033;SDS011;39952;40.122;18.294;2022-10-16T04:17:33;23.58;;;14.25;;
54033;SDS011;39952;40.122;18.294;2022-10-16T04:20:41;24.45;;;13.88;;
54033;SDS011;39952;40.122;18.294;2022-10-16T04:23:48;24.70;;;13.98;;
54033;SDS011;39952;40.122;18.294;2022-10-16T04:26:55;26.02;;;13.75;;
54033;SDS011;39952;40.122;18.294;2022-10-16T04:30:02;22.80;;;12.55;;
54033;SDS011;39952;40.122;18.294;2022-10-16T04:33:10;25.42;;;13.38;;
54033;SDS011;39952;40.122;18.294;2022-10-16T04:36:18;23.17;;;13.02;;
54033;SDS011;39952;40.122;18.294;2022-10-16T04:39:26;28.95;;;15.45;;
54033;SDS011;39952;40.122;18.294;2022-10-16T04:42:32;23.45;;;14.75;;
54033;SDS011;39952;40.122;18.294;2022-10-16T04:45:39;23.63;;;14.80;;
54033;SDS011;39952;40.122;18.294;2022-10-16T04:48:46;27.60;;;13.88;;
54033;SDS011;39952;40.122;18.294;2022-10-16T04:51:54;26.98;;;15.55;;
54033;SDS011;39952;40.122;18.294;2022-10-16T04:55:01;27.48;;;15.68;;
54033;SDS011;39952;40.122;18.294;2022-10-16T04:58:09;31.25;;;16.85;;
54033;SDS011;39952;40.122;18.294;2022-10-16T05:01:16;31.50;;;15.90;;
54033;SDS011;39952;40.122;18.294;2022-10-16T05:04:22;30.73;;;15.75;;
54033;SDS011;39952;40.122;18.294;2022-10-16T05:07:30;31.23;;;16.77;;
54033;SDS011;39952;40.122;18.294;2022-10-16T05:10:37;32.63;;;15.98;;
54033;SDS011;39952;40.122;18.294;2022-10-16T05:13:44;36.50;;;18.52;;
54033;SDS011;39952;40.122;18.294;2022-10-16T05:16:52;40.33;;;19.35;;
54033;SDS011;39952;40.122;18.294;2022-10-16T05:19:59;44.90;;;18.85;;
54033;SDS011;39952;40.122;18.294;2022-10-16T05:23:06;48.78;;;20.08;;
54033;SDS011;39952;40.122;18.294;2022-10-16T05:26:14;42.85;;;17.77;;
54033;SDS011;39952;40.122;18.294;2022-10-16T05:29:21;51.63;;;19.30;;
54033;SDS011;39952;40.122;18.294;2022-10-16T05:32:28;66.00;;;19.27;;
54033;SDS011;39952;40.122;18.294;2022-10-16T05:35:35;53.97;;;19.10;;
54033;SDS011;39952;40.122;18.294;2022-10-16T05:38:43;83.63;;;22.92;;
54033;SDS011;39952;40.122;18.294;2022-10-16T05:41:49;68.35;;;19.38;;
54033;SDS011;39952;40.122;18.294;2022-10-16T05:44:56;43.08;;;15.70;;
54033;SDS011;39952;40.122;18.294;2022-10-16T05:48:03;47.17;;;16.30;;
54033;SDS011;39952;40.122;18.294;2022-10-16T05:51:12;37.05;;;16.48;;
54033;SDS011;39952;40.122;18.294;2022-10-16T05:54:21;48.28;;;15.43;;
54033;SDS011;39952;40.122;18.294;2022-10-16T05:57:28;36.85;;;15.55;;
54033;SDS011;39952;40.122;18.294;2022-10-16T06:00:35;45.13;;;16.02;;
54033;SDS011;39952;40.122;18.294;2022-10-16T06:03:42;58.80;;;20.42;;
54033;SDS011;39952;40.122;18.294;2022-10-16T06:06:49;27.77;;;14.60;;
54033;SDS011;39952;40.122;18.294;2022-10-16T06:09:57;32.83;;;15.73;;
54033;SDS011;39952;40.122;18.294;2022-10-16T06:13:04;28.17;;;16.40;;
54033;SDS011;39952;40.122;18.294;2022-10-16T06:16:11;31.95;;;17.98;;
54033;SDS011;39952;40.122;18.294;2022-10-16T06:19:18;30.80;;;16.63;;
54033;SDS011;39952;40.122;18.294;2022-10-16T06:22:25;28.77;;;16.02;;
54033;SDS011;39952;40.122;18.294;2022-10-16T06:25:33;38.25;;;19.70;;
54033;SDS011;39952;40.122;18.294;2022-10-16T06:28:40;36.50;;;17.77;;
54033;SDS011;39952;40.122;18.294;2022-10-16T06:31:46;38.85;;;20.42;;
54033;SDS011;39952;40.122;18.294;2022-10-16T06:34:53;37.67;;;18.65;;
54033;SDS011;39952;40.122;18.294;2022-10-16T06:38:00;36.55;;;19.02;;
54033;SDS011;39952;40.122;18.294;2022-10-16T06:41:09;48.58;;;23.40;;
54033;SDS011;39952;40.122;18.294;2022-10-16T06:44:17;39.38;;;20.85;;
54033;SDS011;39952;40.122;18.294;2022-10-16T06:47:23;41.17;;;21.92;;
54033;SDS011;39952;40.122;18.294;2022-10-16T06:50:30;40.08;;;20.63;;
54033;SDS011;39952;40.122;18.294;2022-10-16T06:53:37;42.92;;;22.48;;
54033;SDS011;39952;40.122;18.294;2022-10-16T06:56:53;49.30;;;23.23;;
54033;SDS011;39952;40.122;18.294;2022-10-16T07:00:01;41.35;;;23.23;;
54033;SDS011;39952;40.122;18.294;2022-10-16T07:03:09;44.15;;;24.15;;
54033;SDS011;39952;40.122;18.294;2022-10-16T07:06:16;47.33;;;24.48;;
54033;SDS011;39952;40.122;18.294;2022-10-16T07:09:24;45.22;;;24.40;;
54033;SDS011;39952;40.122;18.294;2022-10-16T07:12:33;40.72;;;23.27;;
54033;SDS011;39952;40.122;18.294;2022-10-16T07:15:40;41.95;;;22.48;;
54033;SDS011;39952;40.122;18.294;2022-10-16T07:18:47;34.15;;;19.10;;
54033;SDS011;39952;40.122;18.294;2022-10-16T07:21:57;40.25;;;21.25;;
54033;SDS011;39952;40.122;18.294;2022-10-16T07:25:04;41.28;;;23.13;;
54033;SDS011;39952;40.122;18.294;2022-10-16T07:28:13;43.00;;;25.48;;
54033;SDS011;39952;40.122;18.294;2022-10-16T07:31:20;40.47;;;21.85;;
54033;SDS011;39952;40.122;18.294;2022-10-16T07:34:27;41.70;;;23.65;;
54033;SDS011;39952;40.122;18.294;2022-10-16T07:37:34;37.28;;;22.50;;
54033;SDS011;39952;40.122;18.294;2022-10-16T07:40:41;41.95;;;23.42;;
54033;SDS011;39952;40.122;18.294;2022-10-16T07:43:49;41.17;;;24.92;;
54033;SDS011;39952;40.122;18.294;2022-10-16T07:46:58;36.15;;;20.95;;
54033;SDS011;39952;40.122;18.294;2022-10-16T07:50:06;35.80;;;20.52;;
54033;SDS011;39952;40.122;18.294;2022-10-16T07:53:13;34.17;;;21.08;;
54033;SDS011;39952;40.122;18.294;2022-10-16T07:56:20;32.78;;;19.08;;
54033;SDS011;39952;40.122;18.294;2022-10-16T07:59:29;36.40;;;21.92;;
54033;SDS011;39952;40.122;18.294;2022-10-16T08:02:35;36.95;;;20.67;;
54033;SDS011;39952;40.122;18.294;2022-10-16T08:05:42;31.08;;;18.88;;
54033;SDS011;39952;40.122;18.294;2022-10-16T08:08:49;35.38;;;19.17;;
54033;SDS011;39952;40.122;18.294;2022-10-16T08:11:56;34.65;;;18.48;;
54033;SDS011;39952;40.122;18.294;2022-10-16T08:15:07;28.60;;;17.70;;
54033;SDS011;39952;40.122;18.294;2022-10-16T08:18:15;28.70;;;17.52;;
54033;SDS011;39952;40.122;18.294;2022-10-16T08:21:22;22.83;;;14.38;;
54033;SDS011;39952;40.122;18.294;2022-10-16T08:24:28;23.35;;;13.95;;
54033;SDS011;39952;40.122;18.294;2022-10-16T08:27:37;25.48;;;13.73;;
54033;SDS011;39952;40.122;18.294;2022-10-16T08:30:45;22.98;;;13.43;;
54033;SDS011;39952;40.122;18.294;2022-10-16T08:33:52;25.23;;;14.35;;
54033;SDS011;39952;40.122;18.294;2022-10-16T08:36:58;23.02;;;13.07;;
54033;SDS011;39952;40.122;18.294;2022-10-16T08:40:06;24.13;;;14.52;;
54033;SDS011;39952;40.122;18.294;2022-10-16T08:43:24;23.02;;;15.20;;
54033;SDS011;39952;40.122;18.294;2022-10-16T08:46:44;22.20;;;13.07;;
54033;SDS011;39952;40.122;18.294;2022-10-16T08:49:58;21.70;;;13.05;;
54033;SDS011;39952;40.122;18.294;2022-10-16T08:53:09;18.63;;;12.25;;
54033;SDS011;39952;40.122;18.294;2022-10-16T08:56:22;21.27;;;11.65;;
54033;SDS011;39952;40.122;18.294;2022-10-16T08:59:29;21.50;;;12.95;;
54033;SDS011;39952;40.122;18.294;2022-10-16T09:02:38;20.17;;;11.95;;
54033;SDS011;39952;40.122;18.294;2022-10-16T09:06:03;24.08;;;13.35;;
54033;SDS011;39952;40.122;18.294;2022-10-16T09:12:51;17.95;;;12.18;;
54033;SDS011;39952;40.122;18.294;2022-10-16T09:16:07;20.25;;;11.77;;
54033;SDS011;39952;40.122;18.294;2022-10-16T09:19:23;16.98;;;10.95;;
54033;SDS011;39952;40.122;18.294;2022-10-16T09:22:34;16.48;;;11.10;;
54033;SDS011;39952;40.122;18.294;2022-10-16T09:25:43;17.33;;;11.40;;
54033;SDS011;39952;40.122;18.294;2022-10-16T09:28:52;16.10;;;10.40;;
54033;SDS011;39952;40.122;18.294;2022-10-16T09:32:06;15.40;;;11.60;;
54033;SDS011;39952;40.122;18.294;2022-10-16T09:35:18;16.15;;;11.70;;
54033;SDS011;39952;40.122;18.294;2022-10-16T09:38:28;14.07;;;9.32;;
54033;SDS011;39952;40.122;18.294;2022-10-16T09:41:36;13.75;;;8.98;;
54033;SDS011;39952;40.122;18.294;2022-10-16T09:44:46;12.73;;;8.68;;
54033;SDS011;39952;40.122;18.294;2022-10-16T09:47:54;14.82;;;10.02;;
54033;SDS011;39952;40.122;18.294;2022-10-16T09:51:03;17.30;;;9.57;;
54033;SDS011;39952;40.122;18.294;2022-10-16T09:54:13;13.05;;;9.77;;
54033;SDS011;39952;40.122;18.294;2022-10-16T09:57:21;14.25;;;8.90;;
54033;SDS011;39952;40.122;18.294;2022-10-16T10:00:29;11.98;;;8.57;;
54033;SDS011;39952;40.122;18.294;2022-10-16T10:03:37;16.30;;;10.00;;
54033;SDS011;39952;40.122;18.294;2022-10-16T10:06:47;15.23;;;9.00;;
54033;SDS011;39952;40.122;18.294;2022-10-16T10:09:56;14.55;;;9.75;;
54033;SDS011;39952;40.122;18.294;2022-10-16T10:13:03;16.55;;;9.23;;
54033;SDS011;39952;40.122;18.294;2022-10-16T10:16:10;12.85;;;8.80;;
54033;SDS011;39952;40.122;18.294;2022-10-16T10:19:19;13.25;;;8.38;;
54033;SDS011;39952;40.122;18.294;2022-10-16T10:25:49;13.38;;;8.98;;
54033;SDS011;39952;40.122;18.294;2022-10-16T10:29:02;17.13;;;10.00;;
54033;SDS011;39952;40.122;18.294;2022-10-16T10:32:18;12.70;;;8.23;;
54033;SDS011;39952;40.122;18.294;2022-10-16T10:35:36;14.82;;;8.93;;
54033;SDS011;39952;40.122;18.294;2022-10-16T10:38:53;15.30;;;9.20;;
54033;SDS011;39952;40.122;18.294;2022-10-16T10:42:06;15.02;;;10.05;;
54033;SDS011;39952;40.122;18.294;2022-10-16T10:45:26;15.38;;;9.57;;
54033;SDS011;39952;40.122;18.294;2022-10-16T10:48:41;14.25;;;9.48;;
54033;SDS011;39952;40.122;18.294;2022-10-16T10:51:58;14.38;;;8.88;;
54033;SDS011;39952;40.122;18.294;2022-10-16T10:55:19;15.93;;;9.32;;
54033;SDS011;39952;40.122;18.294;2022-10-16T10:58:42;14.65;;;9.63;;
54033;SDS011;39952;40.122;18.294;2022-10-16T11:02:04;14.95;;;9.52;;
54033;SDS011;39952;40.122;18.294;2022-10-16T11:08:50;14.32;;;9.52;;
54033;SDS011;39952;40.122;18.294;2022-10-16T11:12:01;14.35;;;9.77;;
54033;SDS011;39952;40.122;18.294;2022-10-16T11:15:14;15.30;;;9.80;;
54033;SDS011;39952;40.122;18.294;2022-10-16T11:18:26;16.17;;;10.70;;
54033;SDS011;39952;40.122;18.294;2022-10-16T11:21:46;14.80;;;10.48;;
54033;SDS011;39952;40.122;18.294;2022-10-16T11:24:58;14.32;;;9.60;;
54033;SDS011;39952;40.122;18.294;2022-10-16T11:28:13;14.60;;;10.05;;
54033;SDS011;39952;40.122;18.294;2022-10-16T11:31:24;18.23;;;10.63;;
54033;SDS011;39952;40.122;18.294;2022-10-16T11:34:38;17.27;;;10.27;;
54033;SDS011;39952;40.122;18.294;2022-10-16T11:37:50;13.63;;;8.77;;
54033;SDS011;39952;40.122;18.294;2022-10-16T11:41:00;15.85;;;8.65;;
54033;SDS011;39952;40.122;18.294;2022-10-16T11:44:34;15.43;;;10.27;;
54033;SDS011;39952;40.122;18.294;2022-10-16T11:47:50;17.55;;;10.32;;
54033;SDS011;39952;40.122;18.294;2022-10-16T11:51:05;16.77;;;10.82;;
54033;SDS011;39952;40.122;18.294;2022-10-16T11:54:20;17.25;;;10.63;;
54033;SDS011;39952;40.122;18.294;2022-10-16T11:57:31;16.65;;;9.93;;
54033;SDS011;39952;40.122;18.294;2022-10-16T12:00:45;15.00;;;10.70;;
54033;SDS011;39952;40.122;18.294;2022-10-16T12:04:00;14.95;;;10.30;;
54033;SDS011;39952;40.122;18.294;2022-10-16T12:07:13;16.25;;;10.35;;
54033;SDS011;39952;40.122;18.294;2022-10-16T12:10:24;18.48;;;10.90;;
54033;SDS011;39952;40.122;18.294;2022-10-16T12:13:34;15.82;;;9.65;;
54033;SDS011;39952;40.122;18.294;2022-10-16T12:16:51;17.48;;;11.20;;
54033;SDS011;39952;40.122;18.294;2022-10-16T12:20:00;20.35;;;10.93;;
54033;SDS011;39952;40.122;18.294;2022-10-16T12:23:21;15.45;;;10.30;;
54033;SDS011;39952;40.122;18.294;2022-10-16T12:26:28;17.05;;;10.93;;
54033;SDS011;39952;40.122;18.294;2022-10-16T12:32:45;18.52;;;12.10;;
54033;SDS011;39952;40.122;18.294;2022-10-16T12:36:00;18.60;;;11.48;;
54033;SDS011;39952;40.122;18.294;2022-10-16T12:42:33;16.92;;;11.20;;
54033;SDS011;39952;40.122;18.294;2022-10-16T12:45:40;18.33;;;11.40;;
54033;SDS011;39952;40.122;18.294;2022-10-16T12:48:48;20.25;;;11.90;;
54033;SDS011;39952;40.122;18.294;2022-10-16T12:52:23;21.98;;;12.70;;
54033;SDS011;39952;40.122;18.294;2022-10-16T12:55:41;18.48;;;11.23;;
54033;SDS011;39952;40.122;18.294;2022-10-16T13:05:54;18.58;;;12.00;;
54033;SDS011;39952;40.122;18.294;2022-10-16T13:09:27;21.73;;;12.23;;
54033;SDS011;39952;40.122;18.294;2022-10-16T13:12:50;22.27;;;11.90;;
54033;SDS011;39952;40.122;18.294;2022-10-16T13:16:13;22.88;;;12.10;;
54033;SDS011;39952;40.122;18.294;2022-10-16T13:19:28;19.10;;;12.20;;
54033;SDS011;39952;40.122;18.294;2022-10-16T13:22:44;17.70;;;10.75;;
54033;SDS011;39952;40.122;18.294;2022-10-16T13:26:01;22.02;;;10.60;;
54033;SDS011;39952;40.122;18.294;2022-10-16T13:29:18;14.70;;;10.27;;
54033;SDS011;39952;40.122;18.294;2022-10-16T13:32:26;15.90;;;9.25;;
54033;SDS011;39952;40.122;18.294;2022-10-16T13:35:34;14.02;;;8.68;;
54033;SDS011;39952;40.122;18.294;2022-10-16T13:38:43;13.00;;;7.82;;
54033;SDS011;39952;40.122;18.294;2022-10-16T13:42:03;14.50;;;8.20;;
54033;SDS011;39952;40.122;18.294;2022-10-16T13:45:19;11.52;;;6.88;;
54033;SDS011;39952;40.122;18.294;2022-10-16T13:48:26;9.73;;;6.50;;
54033;SDS011;39952;40.122;18.294;2022-10-16T13:51:32;11.85;;;6.80;;
54033;SDS011;39952;40.122;18.294;2022-10-16T13:54:41;8.55;;;5.70;;
54033;SDS011;39952;40.122;18.294;2022-10-16T13:57:47;9.38;;;6.35;;
54033;SDS011;39952;40.122;18.294;2022-10-16T14:00:55;9.68;;;6.32;;
54033;SDS011;39952;40.122;18.294;2022-10-16T14:04:05;9.80;;;6.18;;
54033;SDS011;39952;40.122;18.294;2022-10-16T14:10:31;11.32;;;6.40;;
54033;SDS011;39952;40.122;18.294;2022-10-16T14:13:40;11.18;;;5.95;;
54033;SDS011;39952;40.122;18.294;2022-10-16T14:16:50;10.65;;;5.82;;
54033;SDS011;39952;40.122;18.294;2022-10-16T14:19:58;13.05;;;6.47;;
54033;SDS011;39952;40.122;18.294;2022-10-16T14:23:19;11.73;;;7.00;;
54033;SDS011;39952;40.122;18.294;2022-10-16T14:26:29;14.23;;;6.40;;
54033;SDS011;39952;40.122;18.294;2022-10-16T14:29:49;10.00;;;6.15;;
54033;SDS011;39952;40.122;18.294;2022-10-16T14:32:56;11.10;;;6.43;;
54033;SDS011;39952;40.122;18.294;2022-10-16T14:36:05;11.35;;;6.60;;
54033;SDS011;39952;40.122;18.294;2022-10-16T14:39:19;10.48;;;6.90;;
54033;SDS011;39952;40.122;18.294;2022-10-16T14:42:28;14.40;;;6.10;;
54033;SDS011;39952;40.122;18.294;2022-10-16T14:45:35;14.20;;;6.80;;
54033;SDS011;39952;40.122;18.294;2022-10-16T14:48:43;11.48;;;5.93;;
54033;SDS011;39952;40.122;18.294;2022-10-16T14:51:53;14.55;;;6.53;;
54033;SDS011;39952;40.122;18.294;2022-10-16T14:55:00;13.27;;;7.03;;
54033;SDS011;39952;40.122;18.294;2022-10-16T14:58:10;13.77;;;6.90;;
54033;SDS011;39952;40.122;18.294;2022-10-16T15:01:21;25.52;;;7.82;;
54033;SDS011;39952;40.122;18.294;2022-10-16T15:04:28;10.65;;;6.90;;
54033;SDS011;39952;40.122;18.294;2022-10-16T15:07:34;11.55;;;6.75;;
54033;SDS011;39952;40.122;18.294;2022-10-16T15:10:41;14.55;;;6.70;;
54033;SDS011;39952;40.122;18.294;2022-10-16T15:13:50;9.98;;;6.90;;
54033;SDS011;39952;40.122;18.294;2022-10-16T15:16:57;9.73;;;6.72;;
54033;SDS011;39952;40.122;18.294;2022-10-16T15:20:04;10.10;;;6.40;;
54033;SDS011;39952;40.122;18.294;2022-10-16T15:23:13;11.65;;;7.32;;
54033;SDS011;39952;40.122;18.294;2022-10-16T15:26:21;10.80;;;6.78;;
54033;SDS011;39952;40.122;18.294;2022-10-16T15:29:29;10.23;;;6.85;;
54033;SDS011;39952;40.122;18.294;2022-10-16T15:32:35;10.88;;;6.80;;
54033;SDS011;39952;40.122;18.294;2022-10-16T15:35:42;12.13;;;7.20;;
54033;SDS011;39952;40.122;18.294;2022-10-16T15:38:51;11.48;;;7.03;;
54033;SDS011;39952;40.122;18.294;2022-10-16T15:41:58;10.85;;;6.95;;
54033;SDS011;39952;40.122;18.294;2022-10-16T15:45:07;9.93;;;6.35;;
54033;SDS011;39952;40.122;18.294;2022-10-16T15:48:15;13.20;;;7.57;;
54033;SDS011;39952;40.122;18.294;2022-10-16T15:51:21;13.00;;;7.10;;
54033;SDS011;39952;40.122;18.294;2022-10-16T15:54:28;10.57;;;7.20;;
54033;SDS011;39952;40.122;18.294;2022-10-16T15:57:35;12.10;;;7.15;;
54033;SDS011;39952;40.122;18.294;2022-10-16T16:00:44;12.23;;;7.43;;
54033;SDS011;39952;40.122;18.294;2022-10-16T16:03:52;11.00;;;6.80;;
54033;SDS011;39952;40.122;18.294;2022-10-16T16:06:59;11.05;;;7.13;;
54033;SDS011;39952;40.122;18.294;2022-10-16T16:10:06;12.48;;;6.90;;
54033;SDS011;39952;40.122;18.294;2022-10-16T16:13:15;12.68;;;7.15;;
54033;SDS011;39952;40.122;18.294;2022-10-16T16:16:23;11.98;;;7.57;;
54033;SDS011;39952;40.122;18.294;2022-10-16T16:19:30;12.95;;;7.40;;
54033;SDS011;39952;40.122;18.294;2022-10-16T16:22:36;11.50;;;7.65;;
54033;SDS011;39952;40.122;18.294;2022-10-16T16:25:43;12.82;;;7.78;;
54033;SDS011;39952;40.122;18.294;2022-10-16T16:28:49;10.15;;;7.45;;
54033;SDS011;39952;40.122;18.294;2022-10-16T16:31:57;11.68;;;7.00;;
54033;SDS011;39952;40.122;18.294;2022-10-16T16:35:05;12.27;;;7.40;;
54033;SDS011;39952;40.122;18.294;2022-10-16T16:38:12;12.48;;;7.20;;
54033;SDS011;39952;40.122;18.294;2022-10-16T16:41:19;11.02;;;7.65;;
54033;SDS011;39952;40.122;18.294;2022-10-16T16:44:27;12.43;;;7.45;;
54033;SDS011;39952;40.122;18.294;2022-10-16T16:47:35;10.52;;;7.57;;
54033;SDS011;39952;40.122;18.294;2022-10-16T16:50:42;11.25;;;7.82;;
54033;SDS011;39952;40.122;18.294;2022-10-16T16:53:50;14.02;;;8.40;;
54033;SDS011;39952;40.122;18.294;2022-10-16T16:56:57;12.43;;;8.03;;
54033;SDS011;39952;40.122;18.294;2022-10-16T17:00:05;15.55;;;8.88;;
54033;SDS011;39952;40.122;18.294;2022-10-16T17:03:13;12.13;;;7.15;;
54033;SDS011;39952;40.122;18.294;2022-10-16T17:06:21;15.40;;;7.95;;
54033;SDS011;39952;40.122;18.294;2022-10-16T17:09:28;12.90;;;8.05;;
54033;SDS011;39952;40.122;18.294;2022-10-16T17:12:37;16.60;;;8.70;;
54033;SDS011;39952;40.122;18.294;2022-10-16T17:15:45;13.45;;;8.20;;
54033;SDS011;39952;40.122;18.294;2022-10-16T17:18:53;13.95;;;7.70;;
54033;SDS011;39952;40.122;18.294;2022-10-16T17:22:00;13.80;;;7.70;;
54033;SDS011;39952;40.122;18.294;2022-10-16T17:25:12;14.00;;;8.50;;
54033;SDS011;39952;40.122;18.294;2022-10-16T17:28:18;10.65;;;6.88;;
54033;SDS011;39952;40.122;18.294;2022-10-16T17:31:26;18.88;;;9.23;;
54033;SDS011;39952;40.122;18.294;2022-10-16T17:34:35;12.85;;;8.70;;
54033;SDS011;39952;40.122;18.294;2022-10-16T17:37:42;16.77;;;9.17;;
54033;SDS011;39952;40.122;18.294;2022-10-16T17:40:48;15.43;;;9.10;;
54033;SDS011;39952;40.122;18.294;2022-10-16T17:43:55;17.65;;;10.48;;
54033;SDS011;39952;40.122;18.294;2022-10-16T17:47:02;20.92;;;9.90;;
54033;SDS011;39952;40.122;18.294;2022-10-16T17:50:11;15.23;;;8.68;;
54033;SDS011;39952;40.122;18.294;2022-10-16T17:53:18;13.50;;;9.40;;
54033;SDS011;39952;40.122;18.294;2022-10-16T17:56:25;17.70;;;11.05;;
54033;SDS011;39952;40.122;18.294;2022-10-16T17:59:33;16.23;;;10.18;;
54033;SDS011;39952;40.122;18.294;2022-10-16T18:02:39;17.23;;;10.63;;
54033;SDS011;39952;40.122;18.294;2022-10-16T18:05:48;18.27;;;10.10;;
54033;SDS011;39952;40.122;18.294;2022-10-16T18:08:56;18.08;;;10.75;;
54033;SDS011;39952;40.122;18.294;2022-10-16T18:12:04;20.50;;;10.35;;
54033;SDS011;39952;40.122;18.294;2022-10-16T18:15:11;20.50;;;12.30;;
54033;SDS011;39952;40.122;18.294;2022-10-16T18:18:18;17.40;;;10.13;;
54033;SDS011;39952;40.122;18.294;2022-10-16T18:21:29;22.83;;;12.80;;
54033;SDS011;39952;40.122;18.294;2022-10-16T18:24:35;22.67;;;11.48;;
54033;SDS011;39952;40.122;18.294;2022-10-16T18:27:42;24.45;;;12.45;;
54033;SDS011;39952;40.122;18.294;2022-10-16T18:30:55;21.35;;;12.88;;
54033;SDS011;39952;40.122;18.294;2022-10-16T18:34:03;20.85;;;12.50;;
54033;SDS011;39952;40.122;18.294;2022-10-16T18:37:11;23.73;;;12.98;;
54033;SDS011;39952;40.122;18.294;2022-10-16T18:40:19;22.17;;;12.98;;
54033;SDS011;39952;40.122;18.294;2022-10-16T18:43:25;23.70;;;14.57;;
54033;SDS011;39952;40.122;18.294;2022-10-16T18:46:33;24.45;;;13.68;;
54033;SDS011;39952;40.122;18.294;2022-10-16T18:49:40;22.70;;;13.38;;